Time;durP1;ratioP1;P1;durP2;ratioP2;P2;SDS_P1;SDS_P2;PMS_P1;PMS_P2;Temp;Humidity;BMP_temperature;BMP_pressure;BME280_temperature;BME280_humidity;BME280_pressure;Samples;Min_cycle;Max_cycle;Signal;HPM_P1;HPM_P2
2023/01/08 00:02:04;;;;;;;69.90;29.57;;;;;;;41.33;37.71;101102.31;4826691;29;20872;-71
2023/01/08 00:04:30;;;;;;;60.67;27.50;;;;;;;41.25;37.93;101105.00;4826729;29;20192;-72
2023/01/08 00:06:56;;;;;;;57.27;30.90;;;;;;;41.14;37.77;101107.28;4826480;29;20456;-76
2023/01/08 00:09:22;;;;;;;73.57;30.43;;;;;;;41.26;37.48;101095.75;4826042;29;20191;-77
2023/01/08 00:11:48;;;;;;;65.87;29.70;;;;;;;41.27;37.72;101106.31;4826256;29;20609;-72
2023/01/08 00:14:14;;;;;;;64.47;27.97;;;;;;;41.22;37.55;101100.22;4826111;29;20470;-75
2023/01/08 00:16:40;;;;;;;59.60;31.10;;;;;;;41.16;38.15;101096.88;4825572;29;20846;-80
2023/01/08 00:19:06;;;;;;;59.23;28.33;;;;;;;40.87;38.37;101088.56;4825178;29;20210;-79
2023/01/08 00:21:32;;;;;;;71.10;29.93;;;;;;;40.94;38.46;101095.13;4825710;29;20434;-79
2023/01/08 00:23:58;;;;;;;59.33;28.60;;;;;;;40.88;38.65;101095.59;4825998;29;20278;-72
2023/01/08 00:26:24;;;;;;;44.07;25.37;;;;;;;40.85;38.73;101093.53;4826094;29;20881;-77
2023/01/08 00:28:50;;;;;;;53.30;29.23;;;;;;;40.75;38.77;101097.38;4826013;29;20497;-76
2023/01/08 00:31:16;;;;;;;52.10;29.07;;;;;;;40.73;38.75;101100.41;4842526;29;20421;-73
2023/01/08 00:33:42;;;;;;;56.53;26.40;;;;;;;40.82;38.98;101092.22;4825954;29;20438;-76
2023/01/08 00:36:11;;;;;;;62.10;30.53;;;;;;;40.92;38.59;101094.66;4825857;29;20464;-76
2023/01/08 00:38:37;;;;;;;64.30;28.07;;;;;;;40.92;38.87;101089.22;4842386;29;20417;-75
2023/01/08 00:41:04;;;;;;;81.77;30.63;;;;;;;40.70;38.74;101090.19;4842248;29;20424;-75
2023/01/08 00:43:30;;;;;;;59.83;27.80;;;;;;;40.23;39.81;101091.84;4822526;29;20477;-76
2023/01/08 00:45:56;;;;;;;75.00;32.23;;;;;;;40.69;39.36;101094.00;4822778;29;20433;-79
2023/01/08 00:48:23;;;;;;;44.50;28.90;;;;;;;40.60;39.41;101092.41;4822731;29;20562;-79
2023/01/08 00:50:50;;;;;;;56.10;28.90;;;;;;;40.88;39.10;101092.88;4822751;29;20432;-79
2023/01/08 00:53:17;;;;;;;68.40;28.63;;;;;;;40.47;39.33;101086.81;4822600;29;20982;-75
2023/01/08 00:55:43;;;;;;;52.97;27.43;;;;;;;40.95;39.03;101095.97;4807412;29;20507;-72
2023/01/08 00:58:10;;;;;;;51.87;26.80;;;;;;;40.46;39.92;101087.09;4822792;29;20449;-76
2023/01/08 01:00:36;;;;;;;60.93;29.70;;;;;;;40.62;39.74;101087.44;4822577;29;20473;-72
2023/01/08 01:03:01;;;;;;;55.33;25.10;;;;;;;40.81;39.49;101087.91;4822759;29;20497;-72
2023/01/08 01:05:27;;;;;;;65.10;28.00;;;;;;;40.43;39.75;101085.81;4822569;29;20426;-70
2023/01/08 01:07:53;;;;;;;91.03;29.10;;;;;;;40.49;39.56;101087.28;4822373;29;20429;-75
2023/01/08 01:10:19;;;;;;;75.77;30.67;;;;;;;40.72;39.13;101093.38;4822579;29;20440;-72
2023/01/08 01:12:45;;;;;;;83.10;32.27;;;;;;;40.87;38.98;101094.78;4822488;29;20425;-72
2023/01/08 01:15:14;;;;;;;68.77;25.57;;;;;;;40.94;38.73;101091.63;4822145;29;20870;-74
2023/01/08 01:17:42;;;;;;;66.93;27.40;;;;;;;40.89;39.07;101087.13;4822403;29;20199;-74
2023/01/08 01:20:11;;;;;;;49.93;27.57;;;;;;;40.79;38.98;101085.53;4822115;29;20513;-74
2023/01/08 01:22:38;;;;;;;53.97;25.90;;;;;;;40.67;39.66;101079.94;4822326;29;20838;-79
2023/01/08 01:25:04;;;;;;;69.60;31.10;;;;;;;40.28;40.02;101073.47;4821685;29;20195;-80
2023/01/08 01:27:30;;;;;;;64.20;29.13;;;;;;;40.17;39.71;101069.47;4821504;29;20468;-80
2023/01/08 01:29:56;;;;;;;69.13;30.77;;;;;;;40.22;39.66;101068.53;4827336;29;20818;-72
2023/01/08 01:32:22;;;;;;;56.60;28.63;;;;;;;40.54;39.63;101062.66;4829549;29;20803;-75
2023/01/08 01:34:48;;;;;;;76.60;28.77;;;;;;;40.73;39.04;101061.53;4829267;29;20482;-77
2023/01/08 01:37:15;;;;;;;73.00;26.33;;;;;;;40.65;38.86;101054.19;4829357;29;20793;-72
2023/01/08 01:39:47;;;;;;;67.27;29.20;;;;;;;40.57;38.94;101047.59;4828120;29;20198;-72
2023/01/08 01:45:01;;;;;;;64.63;27.33;;;;;;;40.53;39.43;101052.91;4829523;29;20416;-71
2023/01/08 01:47:35;;;;;;;73.60;28.03;;;;;;;40.80;39.22;101049.03;4812841;29;20882;-75
2023/01/08 01:50:11;;;;;;;59.63;29.37;;;;;;;40.83;38.50;101047.63;4827748;29;20464;-74
2023/01/08 01:52:46;;;;;;;66.77;32.10;;;;;;;40.78;38.92;101050.50;4827877;29;20460;-78
2023/01/08 01:55:14;;;;;;;63.97;29.30;;;;;;;40.46;39.14;101057.19;4829100;29;20886;-72
2023/01/08 01:57:48;;;;;;;70.57;29.57;;;;;;;40.17;39.40;101044.22;4827808;29;20465;-75
2023/01/08 02:00:14;;;;;;;66.23;31.87;;;;;;;40.44;39.06;101051.25;4827868;29;20444;-72
2023/01/08 02:02:40;;;;;;;56.40;28.50;;;;;;;40.49;39.13;101067.44;4829214;29;20765;-72
2023/01/08 02:05:07;;;;;;;61.00;27.00;;;;;;;40.34;39.76;101049.69;4829010;29;20979;-72
2023/01/08 02:07:36;;;;;;;46.73;26.83;;;;;;;40.51;39.03;101049.69;4828111;29;20165;-77
2023/01/08 02:10:18;;;;;;;50.13;28.37;;;;;;;40.29;39.39;101053.34;4827597;29;20575;-72
2023/01/08 02:12:51;;;;;;;62.33;29.17;;;;;;;40.31;39.63;101054.94;4827843;29;20523;-76
2023/01/08 02:15:33;;;;;;;65.50;30.10;;;;;;;40.21;40.06;101051.41;4827624;29;20481;-72
2023/01/08 02:18:18;;;;;;;62.60;28.93;;;;;;;40.38;39.88;101056.06;4823920;29;20449;-71
2023/01/08 02:21:08;;;;;;;57.73;27.17;;;;;;;40.40;39.13;101050.31;4827476;29;20462;-71
2023/01/08 02:23:46;;;;;;;78.17;29.57;;;;;;;40.28;39.87;101053.66;4818111;29;20528;-70
2023/01/08 02:26:23;;;;;;;66.03;29.27;;;;;;;40.41;39.28;101046.47;4826101;29;20461;-71
2023/01/08 02:29:14;;;;;;;59.33;27.70;;;;;;;40.34;39.42;101052.38;4827250;29;20439;-73
2023/01/08 02:31:42;;;;;;;83.67;34.50;;;;;;;40.13;39.59;101049.47;4826484;29;20428;-73
2023/01/08 02:34:10;;;;;;;73.47;34.13;;;;;;;40.18;39.69;101040.38;4827110;29;20429;-70
2023/01/08 02:36:43;;;;;;;63.03;27.00;;;;;;;40.37;39.78;101051.75;4827256;29;20465;-70
2023/01/08 02:39:31;;;;;;;68.67;27.77;;;;;;;40.48;39.49;101046.81;4815477;29;20495;-70
2023/01/08 02:42:15;;;;;;;49.70;28.27;;;;;;;40.56;39.23;101051.44;4824437;29;20437;-70
2023/01/08 02:45:03;;;;;;;57.90;27.90;;;;;;;40.35;38.99;101053.19;4822641;29;20507;-72
2023/01/08 02:47:31;;;;;;;50.80;28.20;;;;;;;40.47;39.27;101056.06;4812247;29;20437;-70
2023/01/08 02:50:09;;;;;;;69.43;27.07;;;;;;;40.12;39.46;101055.22;4822195;29;20521;-71
2023/01/08 02:52:42;;;;;;;52.20;25.50;;;;;;;39.87;39.78;101056.72;4822184;29;20437;-71
2023/01/08 02:55:10;;;;;;;66.33;26.53;;;;;;;40.35;39.17;101064.06;4822323;29;20473;-72
2023/01/08 02:57:36;;;;;;;72.17;28.50;;;;;;;40.40;39.25;101062.00;4822081;29;20441;-71
2023/01/08 03:00:03;;;;;;;72.27;30.30;;;;;;;40.57;38.55;101058.50;4823441;29;20437;-71
2023/01/08 03:02:34;;;;;;;53.70;32.00;;;;;;;40.51;39.07;101052.41;4823933;29;20442;-70
2023/01/08 03:05:06;;;;;;;52.30;26.57;;;;;;;40.42;39.13;101053.50;4823839;29;20457;-73
2023/01/08 03:07:33;;;;;;;50.97;27.70;;;;;;;40.51;39.07;101059.75;4823676;29;20958;-74
2023/01/08 03:09:59;;;;;;;49.60;27.60;;;;;;;40.61;38.55;101054.00;4823861;29;20542;-72
2023/01/08 03:12:54;;;;;;;56.08;28.67;;;;;;;40.20;39.23;101044.34;4823366;29;20453;-72
2023/01/08 03:15:35;;;;;;;62.73;28.67;;;;;;;39.72;40.13;101049.81;4823598;29;20204;-70
2023/01/08 03:18:09;;;;;;;58.57;29.13;;;;;;;40.10;39.64;101052.03;4823591;29;20433;-70
2023/01/08 03:20:37;;;;;;;69.07;27.23;;;;;;;40.14;39.87;101053.78;4823673;29;20461;-72
2023/01/08 03:23:08;;;;;;;69.90;27.53;;;;;;;40.64;38.63;101053.38;4823823;29;20524;-71
2023/01/08 03:25:36;;;;;;;77.47;31.43;;;;;;;40.13;39.31;101054.91;4823701;29;20437;-71
2023/01/08 03:28:06;;;;;;;52.37;26.77;;;;;;;40.52;38.46;101055.94;4824715;29;21029;-71
2023/01/08 03:30:34;;;;;;;86.70;30.93;;;;;;;40.65;38.46;101065.88;4823721;29;20437;-71
2023/01/08 03:33:01;;;;;;;59.70;28.37;;;;;;;40.75;38.25;101060.06;4824464;29;20441;-72
2023/01/08 03:35:30;;;;;;;85.07;28.27;;;;;;;40.20;39.16;101062.59;4823399;29;20469;-75
2023/01/08 03:38:03;;;;;;;49.73;26.73;;;;;;;39.91;39.55;101065.88;4823415;29;20506;-78
2023/01/08 03:40:37;;;;;;;52.20;27.90;;;;;;;40.18;39.34;101065.63;4823638;29;20480;-74
2023/01/08 03:43:03;;;;;;;54.13;28.70;;;;;;;40.57;38.67;101058.50;4822841;29;21002;-70
2023/01/08 03:45:30;;;;;;;63.87;26.87;;;;;;;40.31;38.71;101057.66;4823249;29;20481;-72
2023/01/08 03:47:59;;;;;;;61.77;30.73;;;;;;;40.52;38.70;101058.66;4822724;29;20441;-74
2023/01/08 03:50:27;;;;;;;71.83;32.20;;;;;;;40.24;39.01;101058.91;4823303;29;20437;-70
2023/01/08 03:52:53;;;;;;;52.97;32.97;;;;;;;40.28;38.88;101057.19;4812386;29;20422;-71
2023/01/08 03:55:19;;;;;;;62.97;28.37;;;;;;;40.20;39.17;101063.38;4823045;29;20469;-74
2023/01/08 03:57:45;;;;;;;75.60;30.93;;;;;;;40.22;39.24;101057.66;4822648;29;20842;-74
2023/01/08 04:00:12;;;;;;;55.17;30.37;;;;;;;40.52;39.10;101066.81;4823539;29;20501;-75
2023/01/08 04:02:38;;;;;;;48.13;27.77;;;;;;;40.36;38.86;101058.28;4822981;29;20464;-71
2023/01/08 04:05:04;;;;;;;72.77;26.97;;;;;;;40.38;39.26;101066.13;4823163;29;20448;-71
2023/01/08 04:07:30;;;;;;;61.40;31.73;;;;;;;40.24;39.36;101055.41;4822671;29;20484;-71
2023/01/08 04:09:55;;;;;;;66.03;32.33;;;;;;;40.33;38.86;101064.38;4823018;29;20967;-71
2023/01/08 04:12:23;;;;;;;53.50;29.67;;;;;;;40.20;39.40;101059.88;4823073;29;20275;-71
2023/01/08 04:14:49;;;;;;;51.40;28.90;;;;;;;39.94;39.87;101057.06;4824100;29;20402;-71
2023/01/08 04:17:15;;;;;;;59.17;33.23;;;;;;;40.04;39.83;101062.25;4822881;29;20437;-72
2023/01/08 04:19:41;;;;;;;57.10;32.90;;;;;;;40.17;39.78;101061.31;4824206;29;20468;-72
2023/01/08 04:22:09;;;;;;;55.10;29.63;;;;;;;40.15;39.62;101060.03;4823692;29;20480;-72
2023/01/08 04:24:35;;;;;;;70.97;32.10;;;;;;;40.25;39.31;101057.00;4822968;29;20506;-71
2023/01/08 04:27:01;;;;;;;57.47;32.90;;;;;;;40.28;39.39;101064.53;4822571;29;20441;-70
2023/01/08 04:29:27;;;;;;;58.70;33.20;;;;;;;40.35;39.15;101067.56;4822733;29;20437;-72
2023/01/08 04:31:53;;;;;;;52.83;30.23;;;;;;;40.41;39.02;101066.31;4822327;29;20817;-73
2023/01/08 04:34:19;;;;;;;68.03;30.03;;;;;;;40.24;39.18;101072.50;4822969;29;20441;-70
2023/01/08 04:36:45;;;;;;;61.20;31.33;;;;;;;40.28;39.13;101078.13;4822331;29;20473;-71
2023/01/08 04:39:11;;;;;;;60.37;32.73;;;;;;;40.41;38.94;101076.38;4822632;29;20202;-71
2023/01/08 04:41:37;;;;;;;59.73;31.27;;;;;;;40.48;39.11;101074.00;4822213;29;20926;-71
2023/01/08 04:44:03;;;;;;;52.27;31.77;;;;;;;40.49;38.65;101070.16;4822627;29;20489;-72
2023/01/08 04:46:29;;;;;;;59.73;32.97;;;;;;;40.51;38.81;101074.16;4822248;29;20533;-71
2023/01/08 04:48:55;;;;;;;63.30;35.03;;;;;;;40.49;38.69;101073.69;4822360;29;20532;-71
2023/01/08 04:51:22;;;;;;;71.50;36.30;;;;;;;40.54;38.73;101080.91;4821964;29;20520;-72
2023/01/08 04:53:48;;;;;;;69.00;38.43;;;;;;;40.48;38.86;101082.16;4822257;29;20195;-71
2023/01/08 04:56:14;;;;;;;72.13;41.77;;;;;;;40.45;38.71;101083.56;4822084;29;20477;-71
2023/01/08 04:58:40;;;;;;;56.53;41.23;;;;;;;40.49;38.57;101084.56;4823806;29;20425;-70
2023/01/08 05:01:26;;;;;;;86.57;45.10;;;;;;;40.62;38.76;101088.25;4822044;29;20426;-71
2023/01/08 05:03:57;;;;;;;71.10;39.10;;;;;;;40.59;38.54;101086.19;4821484;29;20490;-71
2023/01/08 05:06:24;;;;;;;73.93;38.83;;;;;;;40.67;38.61;101079.94;4822335;29;20437;-70
2023/01/08 05:08:50;;;;;;;59.70;36.93;;;;;;;40.67;38.44;101087.28;4822036;29;20490;-71
2023/01/08 05:11:15;;;;;;;55.03;34.60;;;;;;;40.57;38.50;101098.47;4821967;29;20441;-71
2023/01/08 05:13:42;;;;;;;68.17;37.50;;;;;;;40.59;38.76;101093.53;4822281;29;20440;-71
2023/01/08 05:16:08;;;;;;;60.27;36.07;;;;;;;40.57;38.38;101095.75;4822021;29;20469;-71
2023/01/08 05:18:34;;;;;;;73.50;36.37;;;;;;;40.54;38.28;101103.44;4823239;29;20452;-74
2023/01/08 05:21:04;;;;;;;51.63;33.30;;;;;;;40.52;38.10;101105.69;4821628;29;20438;-73
2023/01/08 05:23:32;;;;;;;60.73;34.97;;;;;;;40.57;38.77;101096.56;4821757;29;20448;-71
2023/01/08 05:25:58;;;;;;;56.93;31.80;;;;;;;40.55;38.49;101098.81;4821992;29;20434;-71
2023/01/08 05:28:26;;;;;;;70.70;34.53;;;;;;;40.49;38.63;101100.06;4821622;29;20437;-71
2023/01/08 05:30:52;;;;;;;63.33;33.43;;;;;;;40.42;38.44;101102.44;4821918;29;20461;-71
2023/01/08 05:33:18;;;;;;;58.97;33.07;;;;;;;40.33;38.94;101107.88;4821839;29;20441;-71
2023/01/08 05:35:44;;;;;;;69.13;34.80;;;;;;;40.23;38.84;101108.97;4822012;29;20480;-71
2023/01/08 05:38:10;;;;;;;76.07;35.43;;;;;;;40.29;38.54;101106.91;4818472;29;20438;-73
2023/01/08 05:40:36;;;;;;;61.33;32.10;;;;;;;40.25;38.98;101103.19;4815037;29;20446;-73
2023/01/08 05:43:04;;;;;;;74.30;34.70;;;;;;;40.35;38.93;101108.34;4828165;29;20775;-73
2023/01/08 05:45:31;;;;;;;46.33;32.10;;;;;;;40.30;38.82;101116.66;4824984;29;20428;-73
2023/01/08 05:47:57;;;;;;;65.10;34.63;;;;;;;40.45;38.67;101118.91;4824687;29;20815;-73
2023/01/08 05:50:23;;;;;;;72.20;34.93;;;;;;;40.45;38.31;101123.53;4824812;29;20428;-73
2023/01/08 05:52:48;;;;;;;63.30;32.80;;;;;;;40.42;38.34;101121.47;4840766;29;20934;-71
2023/01/08 05:55:15;;;;;;;49.10;34.30;;;;;;;40.29;38.73;101129.44;4824778;29;20501;-71
2023/01/08 05:57:41;;;;;;;66.73;37.80;;;;;;;40.35;38.70;101123.88;4824540;29;20448;-71
2023/01/08 06:00:11;;;;;;;61.73;33.13;;;;;;;40.41;38.92;101128.03;4840987;29;20429;-71
2023/01/08 06:02:37;;;;;;;55.30;37.10;;;;;;;40.39;38.63;101125.63;4822723;29;20200;-71
2023/01/08 06:05:03;;;;;;;57.70;33.90;;;;;;;40.42;38.48;101126.91;4824802;29;20432;-71
2023/01/08 06:07:29;;;;;;;50.47;35.30;;;;;;;40.42;38.39;101118.75;4824138;29;20439;-74
2023/01/08 06:09:55;;;;;;;55.20;31.60;;;;;;;40.36;38.38;101126.25;4824612;29;20464;-74
2023/01/08 06:12:21;;;;;;;58.23;33.67;;;;;;;40.18;39.12;101119.97;4824585;29;20440;-71
2023/01/08 06:14:47;;;;;;;53.03;32.87;;;;;;;40.09;38.76;101123.81;4824184;29;20227;-71
2023/01/08 06:17:14;;;;;;;57.17;33.73;;;;;;;40.17;38.84;101121.09;4827673;29;20892;-71
2023/01/08 06:19:40;;;;;;;58.67;32.87;;;;;;;40.14;38.95;101131.78;4827309;29;20298;-71
2023/01/08 06:22:06;;;;;;;64.07;35.10;;;;;;;40.16;39.34;101132.28;4828141;29;20472;-71
2023/01/08 06:24:32;;;;;;;51.00;36.50;;;;;;;40.11;38.84;101141.38;4827605;29;20499;-71
2023/01/08 06:26:58;;;;;;;63.17;38.03;;;;;;;40.07;39.21;101139.59;4827518;29;20460;-71
2023/01/08 06:29:24;;;;;;;71.43;36.97;;;;;;;40.10;39.12;101147.94;4827615;29;20227;-71
2023/01/08 06:31:50;;;;;;;73.97;39.97;;;;;;;40.03;39.14;101159.22;4827435;29;20191;-71
2023/01/08 06:34:16;;;;;;;81.83;41.50;;;;;;;40.02;39.21;101156.81;4827694;29;20785;-72
2023/01/08 06:36:42;;;;;;;65.70;43.47;;;;;;;40.02;39.38;101156.81;4843613;29;20487;-72
2023/01/08 06:39:08;;;;;;;77.87;38.83;;;;;;;39.90;39.35;101164.75;4827684;29;20577;-71
2023/01/08 06:41:34;;;;;;;80.33;41.90;;;;;;;39.80;39.24;101170.47;4827168;29;20302;-71
2023/01/08 06:44:00;;;;;;;68.60;36.83;;;;;;;39.83;39.68;101167.91;4826892;29;20488;-71
2023/01/08 06:46:26;;;;;;;68.10;38.10;;;;;;;39.53;40.24;101172.19;4843665;29;20893;-71
2023/01/08 06:48:52;;;;;;;59.63;37.10;;;;;;;39.38;40.47;101170.66;4827230;29;20432;-72
2023/01/08 06:51:18;;;;;;;59.67;35.57;;;;;;;39.59;40.27;101179.09;4827148;29;20433;-71
2023/01/08 06:53:47;;;;;;;61.63;37.00;;;;;;;39.43;40.27;101183.31;4827012;29;20187;-71
2023/01/08 06:56:13;;;;;;;62.00;34.40;;;;;;;39.82;39.58;101184.53;4827000;29;20897;-73
2023/01/08 06:58:39;;;;;;;99.03;44.70;;;;;;;39.91;39.55;101196.25;4827147;29;20447;-73
2023/01/08 07:01:05;;;;;;;62.97;34.40;;;;;;;39.99;39.58;101200.91;4826916;29;20506;-71
2023/01/08 07:03:31;;;;;;;53.70;32.03;;;;;;;40.05;39.43;101204.34;4827005;29;20428;-72
2023/01/08 07:05:57;;;;;;;57.87;36.07;;;;;;;40.04;39.50;101211.69;4826974;29;21001;-71
2023/01/08 07:08:23;;;;;;;61.63;38.60;;;;;;;40.19;39.08;101207.75;4827111;29;20433;-71
2023/01/08 07:10:49;;;;;;;70.80;40.57;;;;;;;39.83;39.52;101203.22;4843276;29;20456;-71
2023/01/08 07:13:15;;;;;;;59.77;38.60;;;;;;;39.86;39.29;101209.97;4827124;29;20473;-73
2023/01/08 07:15:41;;;;;;;60.23;37.27;;;;;;;39.42;40.21;101223.22;4826423;29;20507;-76
2023/01/08 07:18:09;;;;;;;82.30;43.37;;;;;;;39.41;40.43;101218.09;4827002;29;20255;-80
2023/01/08 07:20:36;;;;;;;93.13;47.63;;;;;;;39.73;39.86;101233.38;4843306;29;20543;-79
2023/01/08 07:23:08;;;;;;;84.60;44.80;;;;;;;39.86;39.91;101231.69;4826558;29;20437;-75
2023/01/08 07:25:34;;;;;;;82.03;46.27;;;;;;;40.05;39.60;101236.94;4826594;29;20465;-78
2023/01/08 07:28:00;;;;;;;82.67;46.20;;;;;;;40.24;39.03;101234.78;4822975;29;20881;-72
2023/01/08 07:30:27;;;;;;;82.00;49.83;;;;;;;40.18;38.89;101244.19;4826274;29;20816;-76
2023/01/08 07:32:56;;;;;;;90.00;42.27;;;;;;;40.29;38.64;101251.75;4826379;29;20439;-76
2023/01/08 07:35:22;;;;;;;76.17;41.63;;;;;;;40.07;39.52;101243.66;4826556;29;20911;-76
2023/01/08 07:37:48;;;;;;;57.73;39.33;;;;;;;39.85;39.63;101251.81;4825749;29;20496;-76
2023/01/08 07:40:14;;;;;;;77.07;41.20;;;;;;;40.15;39.02;101252.97;4826497;29;20184;-77
2023/01/08 07:42:40;;;;;;;78.83;41.87;;;;;;;40.10;39.44;101262.06;4825613;29;20751;-77
2023/01/08 07:45:07;;;;;;;66.93;42.00;;;;;;;40.01;39.21;101267.41;4825938;29;20997;-72
2023/01/08 07:47:33;;;;;;;62.07;39.93;;;;;;;40.11;39.41;101263.66;4826624;29;20191;-75
2023/01/08 07:49:59;;;;;;;79.03;44.90;;;;;;;40.09;39.25;101259.66;4826098;29;20528;-78
2023/01/08 07:52:24;;;;;;;82.63;43.27;;;;;;;40.29;39.24;101264.53;4825796;29;20524;-75
2023/01/08 07:54:50;;;;;;;71.53;42.17;;;;;;;40.38;38.96;101264.56;4826031;29;20443;-75
2023/01/08 07:57:16;;;;;;;67.53;42.53;;;;;;;40.35;38.59;101267.94;4826207;29;20191;-76
2023/01/08 07:59:42;;;;;;;104.60;42.33;;;;;;;40.31;38.46;101262.31;4842738;29;20473;-72
2023/01/08 08:02:10;;;;;;;76.53;42.83;;;;;;;40.32;38.94;101265.81;4825815;29;20497;-70
2023/01/08 08:04:36;;;;;;;78.70;39.93;;;;;;;40.44;38.45;101271.47;4825610;29;20455;-73
2023/01/08 08:07:02;;;;;;;61.73;42.83;;;;;;;40.05;38.97;101266.81;4825640;29;20437;-78
2023/01/08 08:09:28;;;;;;;106.20;45.30;;;;;;;40.06;38.86;101276.56;4825732;29;20466;-77
2023/01/08 08:11:54;;;;;;;87.50;46.07;;;;;;;40.19;38.75;101279.19;4825998;29;20468;-78
2023/01/08 08:14:20;;;;;;;72.00;41.57;;;;;;;40.20;38.92;101280.78;4825939;29;20440;-75
2023/01/08 08:16:46;;;;;;;76.90;47.23;;;;;;;40.35;38.94;101284.25;4825713;29;21031;-76
2023/01/08 08:19:12;;;;;;;93.43;47.07;;;;;;;40.43;38.54;101283.47;4825650;29;20210;-77
2023/01/08 08:21:38;;;;;;;76.10;40.37;;;;;;;40.50;38.80;101281.13;4823561;29;20218;-75
2023/01/08 08:24:04;;;;;;;68.03;38.93;;;;;;;40.40;38.38;101278.66;4825144;29;20444;-75
2023/01/08 08:26:30;;;;;;;74.47;41.50;;;;;;;40.46;38.49;101280.13;4824179;29;20444;-73
2023/01/08 08:28:56;;;;;;;63.57;39.87;;;;;;;40.47;38.35;101279.00;4824852;29;20528;-77
2023/01/08 08:31:22;;;;;;;72.17;39.40;;;;;;;40.58;37.94;101277.66;4822992;29;20211;-71
2023/01/08 08:33:48;;;;;;;71.17;41.30;;;;;;;40.23;38.61;101274.75;4825252;29;20199;-78
2023/01/08 08:36:14;;;;;;;71.77;38.83;;;;;;;40.16;38.81;101277.13;4825162;29;20234;-71
2023/01/08 08:38:40;;;;;;;100.87;45.20;;;;;;;40.38;38.64;101278.16;4824467;29;20187;-73
2023/01/08 08:41:06;;;;;;;113.37;50.60;;;;;;;39.95;39.08;101270.56;4825174;29;20795;-72
2023/01/08 08:43:32;;;;;;;80.27;46.87;;;;;;;40.59;38.45;101278.44;4824269;29;20567;-71
2023/01/08 08:45:58;;;;;;;85.53;45.10;;;;;;;40.68;38.28;101271.91;4840354;29;20778;-74
2023/01/08 08:48:24;;;;;;;70.43;41.97;;;;;;;40.74;38.09;101275.28;4823718;29;20453;-73
2023/01/08 08:50:51;;;;;;;89.40;47.47;;;;;;;40.86;37.57;101271.94;4824148;29;20424;-76
2023/01/08 08:53:17;;;;;;;76.50;37.00;;;;;;;40.50;38.19;101284.63;4825410;29;20449;-74
2023/01/08 08:55:43;;;;;;;73.77;47.60;;;;;;;40.45;38.15;101294.81;4824702;29;20468;-76
2023/01/08 08:58:11;;;;;;;87.17;47.27;;;;;;;40.48;38.19;101289.59;4824493;29;20440;-70
2023/01/08 09:00:42;;;;;;;90.50;43.37;;;;;;;40.33;38.37;101283.72;4824135;29;20472;-70
2023/01/08 09:03:16;;;;;;;72.13;42.37;;;;;;;40.58;38.50;101288.53;4824755;29;20973;-70
2023/01/08 09:05:43;;;;;;;80.70;44.20;;;;;;;40.66;37.94;101287.75;4819886;29;20537;-70
2023/01/08 09:08:09;;;;;;;71.57;34.20;;;;;;;39.62;39.25;101287.13;4823094;29;20440;-73
2023/01/08 09:10:37;;;;;;;57.77;36.63;;;;;;;39.94;39.04;101287.97;4820125;29;20493;-71
2023/01/08 09:13:03;;;;;;;82.27;36.17;;;;;;;40.36;39.04;101283.13;4823087;29;20441;-71
2023/01/08 09:15:31;;;;;;;92.13;41.87;;;;;;;40.62;38.54;101281.31;4836418;29;20947;-73
2023/01/08 09:17:58;;;;;;;73.07;36.90;;;;;;;40.42;38.17;101282.66;4821622;29;20433;-70
2023/01/08 09:20:26;;;;;;;78.47;40.97;;;;;;;40.59;38.43;101276.53;4824537;29;20468;-73
2023/01/08 09:22:52;;;;;;;70.80;40.27;;;;;;;40.81;37.55;101268.25;4824946;29;20439;-80
2023/01/08 09:25:18;;;;;;;66.17;39.80;;;;;;;40.84;37.89;101274.19;4824907;29;20446;-72
2023/01/08 09:27:44;;;;;;;83.83;40.57;;;;;;;41.12;37.53;101269.28;4823675;29;20877;-75
2023/01/08 09:30:11;;;;;;;76.80;38.90;;;;;;;41.22;37.08;101261.63;4811823;29;20452;-75
2023/01/08 09:32:37;;;;;;;65.60;34.40;;;;;;;41.37;36.63;101265.00;4824794;29;20444;-80
2023/01/08 09:35:04;;;;;;;58.00;34.70;;;;;;;41.32;36.57;101255.91;4823825;29;20437;-71
2023/01/08 09:37:30;;;;;;;60.73;32.50;;;;;;;41.28;36.12;101256.81;4839997;29;20452;-71
2023/01/08 09:39:56;;;;;;;55.00;32.77;;;;;;;41.34;36.01;101248.19;4838453;29;20506;-71
2023/01/08 09:42:26;;;;;;;66.03;38.90;;;;;;;41.36;36.15;101252.53;4821752;29;20900;-70
2023/01/08 09:44:56;;;;;;;89.53;41.30;;;;;;;41.64;36.27;101253.78;4821261;29;20499;-74
2023/01/08 09:47:42;;;;;;;61.50;35.03;;;;;;;41.65;35.69;101254.59;4822871;29;20448;-72
2023/01/08 09:50:12;;;;;;;57.83;32.30;;;;;;;41.64;35.47;101247.53;4822646;29;20448;-80
2023/01/08 09:52:39;;;;;;;67.33;36.27;;;;;;;41.65;35.56;101239.03;4825517;29;20432;-75
2023/01/08 09:55:15;;;;;;;57.27;30.57;;;;;;;41.65;35.43;101238.25;4823799;29;20531;-71
2023/01/08 09:57:43;;;;;;;59.50;31.10;;;;;;;41.71;35.15;101240.47;4826119;29;20523;-74
2023/01/08 10:00:25;;;;;;;79.83;33.40;;;;;;;41.73;34.91;101234.69;4826237;29;20432;-72
2023/01/08 10:02:53;;;;;;;60.03;32.63;;;;;;;41.78;34.97;101238.06;4840731;29;20428;-73
2023/01/08 10:05:19;;;;;;;62.17;34.77;;;;;;;41.88;35.03;101236.94;4826484;29;20436;-76
2023/01/08 10:07:45;;;;;;;82.77;35.20;;;;;;;41.93;34.61;101225.88;4826836;29;20443;-72
2023/01/08 10:10:20;;;;;;;59.50;33.73;;;;;;;42.05;34.99;101226.00;4811992;29;20451;-74
2023/01/08 10:12:48;;;;;;;59.03;32.20;;;;;;;41.94;34.75;101215.78;4824167;29;20451;-75
2023/01/08 10:15:18;;;;;;;59.50;35.40;;;;;;;42.00;34.61;101222.63;4817272;29;20532;-71
2023/01/08 10:18:05;;;;;;;77.70;30.90;;;;;;;41.83;35.27;101218.84;4826622;29;20487;-72
2023/01/08 10:20:31;;;;;;;70.63;33.87;;;;;;;41.84;34.70;101212.25;4827383;29;20445;-74
2023/01/08 10:23:12;;;;;;;81.00;35.20;;;;;;;41.85;34.98;101213.84;4839798;29;20463;-77
2023/01/08 10:25:58;;;;;;;74.60;29.57;;;;;;;41.86;34.91;101204.53;4827073;29;20436;-77
2023/01/08 10:28:27;;;;;;;62.30;32.77;;;;;;;41.68;35.06;101203.00;4824343;29;20509;-74
2023/01/08 10:30:58;;;;;;;62.77;35.53;;;;;;;41.65;35.16;101209.06;4826328;29;20529;-72
2023/01/08 10:33:46;;;;;;;59.90;32.93;;;;;;;41.70;35.05;101198.00;4825305;29;20831;-78
2023/01/08 10:36:16;;;;;;;71.93;32.73;;;;;;;41.78;34.56;101199.13;4824768;29;21072;-71
2023/01/08 10:39:05;;;;;;;72.73;37.07;;;;;;;41.86;33.61;101196.38;4823122;29;20440;-71
2023/01/08 10:41:38;;;;;;;61.77;33.43;;;;;;;41.84;33.99;101192.38;4842980;29;20484;-70
2023/01/08 10:44:12;;;;;;;78.37;37.83;;;;;;;41.89;33.98;101186.75;4824087;29;20492;-71
2023/01/08 10:46:44;;;;;;;85.40;37.13;;;;;;;41.91;34.01;101189.16;4838081;29;20844;-76
2023/01/08 10:49:40;;;;;;;59.40;33.67;;;;;;;41.76;34.79;101180.41;4823892;29;20468;-72
2023/01/08 10:52:25;;;;;;;64.07;32.33;;;;;;;41.97;34.46;101188.66;4822080;29;20791;-72
2023/01/08 10:54:51;;;;;;;70.03;36.77;;;;;;;42.23;34.47;101168.66;4819439;29;20441;-73
2023/01/08 10:57:35;;;;;;;58.07;30.73;;;;;;;42.08;34.14;101164.56;4823649;29;20468;-71
2023/01/08 11:00:02;;;;;;;64.97;31.80;;;;;;;41.74;34.81;101168.19;4824146;29;20467;-71
2023/01/08 11:02:33;;;;;;;71.50;31.40;;;;;;;41.85;34.26;101159.34;4825563;29;20518;-70
2023/01/08 11:05:00;;;;;;;67.70;33.47;;;;;;;41.91;34.45;101162.72;4824129;29;20460;-72
2023/01/08 11:07:27;;;;;;;64.87;33.23;;;;;;;41.83;34.90;101153.44;4841634;29;20539;-75
2023/01/08 11:09:54;;;;;;;67.57;31.63;;;;;;;41.66;35.26;101160.84;4821526;29;20441;-74
2023/01/08 11:12:39;;;;;;;68.07;34.80;;;;;;;41.23;35.99;101167.16;4826685;29;20518;-70
2023/01/08 11:15:26;;;;;;;91.23;34.57;;;;;;;41.46;35.17;101152.25;4808661;29;20443;-71
2023/01/08 11:17:53;;;;;;;69.90;30.90;;;;;;;41.63;35.47;101140.53;4825716;29;20455;-73
2023/01/08 11:20:29;;;;;;;64.27;33.30;;;;;;;41.96;34.83;101137.22;4824340;29;20455;-72